Weather

Rainfall Maps have ended for the season and will begin again on June 1st.

*Note: Some stations are located near irrigated fields and may also report irrigation

Forrest Carberry Carberry North Wawanesa Glenboro Glenora Treherne Gladstone Portage East High Bluff Elm Creek Carman Winkler Kuhl Farm Morris St.Adolphe Steinbach Selkirk Macdonald Shilo Rivers Somerset Reinland Altona Starbuck St.Pierre Winkler




Winkler - Historical Weather Data
Date Max Temp (°C) Min Temp (°C) Avg Temp (°C) Rain (mm) Avg RH (%) Solar Radiation (W/m2)
4/25/2018 19.7 4.5 12.2 0.0 42.0 19.1
4/24/2018 11.8 0.1 6.3 0.0 55.0 23.5
4/23/2018 16.6 3.4 9.9 0.0 55.0 21.3
4/22/2018 17.4 6.7 11.6 0.0 56.0 14.3
4/21/2018 17.4 1.8 10.3 0.0 63.0 18.8
4/20/2018 15.4 0.0 7.6 0.0 64.0 19.4
4/19/2018 13.8 -0.3 6.2 0.0 63.0 16.8
4/18/2018 11.3 -1.1 4.5 0.0 56.0 20.2
4/17/2018 10.0 -3.4 3.0 0.0 53.0 19.7
4/16/2018 7.9 -5.1 1.1 0.0 56.0 22.5
4/15/2018 4.7 -5.4 -0.7 0.0 56.0 22.2
4/14/2018 3.6 -7.2 -2.1 0.0 57.0 18.3
4/13/2018 -1.0 -7.9 -4.3 0.0 60.0 21.2
4/12/2018 0.3 -3.6 -1.7 4.2 80.0 20.2
4/11/2018 4.1 -4.5 -0.1 2.0 73.0 14.7
4/10/2018 4.1 -4.0 0.2 0.0 68.0 9.2
4/9/2018 2.7 -11.0 -3.3 0.0 66.0 17.3
4/8/2018 -1.2 -12.1 -6.0 0.0 57.0 17.3
4/7/2018 -3.3 -12.9 -7.8 0.0 60.0 20.9
4/6/2018 -3.5 -16.8 -10.4 0.4 63.0 20.0
4/5/2018 -1.2 -11.1 -5.7 0.3 58.0 15.4
4/4/2018 0.0 -9.3 -4.3 0.0 61.0 15.9
4/3/2018 -2.7 -15.7 -9.5 0.0 53.0 17.3
4/2/2018 -5.7 -16.5 -12.8 0.0 61.0 19.6
4/1/2018 -0.5 -10.6 -5.8 0.0 56.0 19.3
3/31/2018 -7.0 -14.0 -10.3 0.0 58.0 19.3
3/30/2018 -7.2 -15.5 -11.3 0.0 53.0 17.4
3/29/2018 -4.2 -12.9 -7.7 0.0 66.0 14.1
3/28/2018 5.5 -5.9 -2.5 0.3 74.0 15.0
3/27/2018 6.8 -2.0 2.3 0.0 78.0 16.5
3/26/2018 1.4 -2.3 0.0 0.0 90.0 9.0
3/25/2018 2.5 -0.5 0.9 0.0 82.0 6.3
3/24/2018 0.5 -3.0 -1.5 0.6 85.0 8.8
3/23/2018 2.6 -8.1 -1.7 0.0 80.0 10.2
3/22/2018 1.7 -2.5 0.0 0.0 93.0 9.5
3/21/2018 0.7 -3.2 -1.1 1.1 94.0 8.7
3/20/2018 -1.5 -6.1 -3.9 0.2 80.0 11.1
3/19/2018 -0.7 -5.0 -3.2 0.0 75.0 10.7
3/18/2018 1.5 -0.7 0.3 0.0 81.0 8.8
3/17/2018 6.5 -13.2 -3.8 0.0 66.0 16.6
3/16/2018 -0.9 -17.2 -9.1 0.0 78.0 16.6
3/15/2018 -4.4 -14.5 -9.3 0.0 73.0 16.4
3/14/2018 0.7 -8.0 -2.9 0.0 72.0 16.3
3/13/2018 2.9 -16.3 -5.1 0.0 69.0 14.9
3/12/2018 -0.9 -13.1 -5.5 0.0 67.0 15.9
3/11/2018 0.9 -8.9 -3.1 0.0 71.0 15.3
3/10/2018 -2.1 -12.2 -5.0 0.0 84.0 8.5
3/9/2018 -7.4 -16.8 -12.2 0.0 87.0 13.8
3/8/2018 -4.7 -18.0 -10.5 0.0 84.0 12.5
3/7/2018 -5.6 -16.7 -9.9 0.0 74.0 15.1
3/6/2018 -2.6 -13.6 -7.5 0.0 71.0 14.5
3/5/2018 0.2 -2.9 -1.0 15.5 96.0 4.9
3/4/2018 4.5 0.0 1.9 13.4 79.0 5.6
3/3/2018 5.8 -8.5 -0.9 0.0 71.0 10.5
3/2/2018 -2.1 -9.0 -4.8 0.0 85.0 7.3
3/1/2018 4.3 -8.2 -1.9 0.0 70.0 12.9
2/28/2018 1.6 -7.9 -3.1 0.0 73.0 11.4
2/27/2018 0.4 -11.4 -5.0 0.0 70.0 12.5
2/26/2018 3.0 -14.5 -4.9 0.0 74.0 10.9
2/25/2018 -0.8 -13.5 -6.8 0.0 78.0 11.2
2/24/2018 -1.5 -16.7 -8.9 0.9 76.0 10.3
2/23/2018 -7.0 -14.4 -11.6 0.0 71.0 11.4
2/22/2018 -5.3 -21.2 -13.4 0.0 72.0 11.6
2/21/2018 -11.4 -18.8 -14.8 0.0 66.0 11.5
2/20/2018 -11.4 -16.4 -14.2 0.8 70.0 9.4
2/19/2018 -14.3 -21.4 -17.2 0.0 63.0 9.0
2/18/2018 -11.0 -16.6 -13.8 0.3 72.0 7.1
2/17/2018 -6.5 -14.2 -10.4 0.0 65.0 10.5
2/16/2018 -5.7 -18.0 -11.9 0.0 67.0 6.5
2/15/2018 -6.5 -21.6 -17.8 0.0 67.0 9.0
2/14/2018 4.4 -6.7 -2.1 0.4 74.0 7.6
2/13/2018 -2.8 -16.7 -8.8 0.0 66.0 7.5
2/12/2018 -16.2 -26.0 -21.5 0.0 62.0 9.9
2/11/2018 -13.1 -22.9 -16.4 0.0 70.0 8.5
2/10/2018 -11.5 -20.9 -15.4 0.0 66.0 7.5
2/9/2018 -12.2 -23.7 -18.2 0.0 65.0 9.3
2/8/2018 -14.2 -23.4 -19.3 0.0 69.0 8.3
2/7/2018 -14.2 -21.6 -18.3 0.0 70.0 9.3
2/6/2018 -14.0 -24.0 -18.6 0.5 72.0 5.6
2/5/2018 -13.9 -23.9 -18.3 0.0 68.0 6.7
2/4/2018 -13.7 -25.3 -19.9 0.0 62.0 7.1
2/3/2018 -20.1 -26.4 -22.2 0.8 74.0 5.8
2/2/2018 -14.7 -21.5 -17.9 0.6 73.0 3.5
2/1/2018 -16.5 -23.0 -20.3 0.0 67.0 7.8
1/31/2018 -11.3 -20.1 -15.8 0.0 62.0 6.3
1/30/2018 2.0 -19.3 -10.1 0.2 75.0 3.2
1/29/2018 -15.8 -19.9 -17.9 0.0 77.0 6.3
1/28/2018 -18.5 -21.9 -20.0 0.0 73.0 6.6
1/27/2018 -7.3 -19.3 -13.9 0.6 76.0 3.6
1/26/2018 -1.1 -7.6 -3.7 0.0 87.0 1.9
1/25/2018 -3.7 -10.3 -5.9 0.0 94.0 1.7
1/24/2018 -3.9 -10.4 -7.5 0.0 89.0 1.4
1/23/2018 -3.9 -6.7 -5.4 0.0 84.0 1.0
1/22/2018 -4.5 -6.7 -5.6 0.0 84.0 1.6
1/21/2018 -3.5 -6.7 -5.6 0.0 88.0 1.4
1/20/2018 3.7 -6.0 -0.8 0.0 80.0 6.0
1/19/2018 5.1 1.0 3.4 0.0 73.0 4.2
1/18/2018 4.5 -5.4 -2.0 0.0 75.0 3.8
1/17/2018 5.0 -10.6 -2.6 0.0 61.0 6.3
1/16/2018 -9.8 -25.4 -16.3 0.0 55.0 4.8
1/15/2018 -22.5 -26.5 -24.4 0.0 71.0 5.6
1/14/2018 -12.3 -23.2 -16.5 1.3 75.0 3.3
1/13/2018 -16.0 -26.6 -21.8 0.0 64.0 6.1
1/12/2018 -19.4 -26.3 -23.0 0.0 63.0 6.1
1/11/2018 -19.4 -25.6 -22.9 1.1 69.0 5.4
1/10/2018 0.0 -19.5 -10.3 2.3 82.0 1.9
1/9/2018 1.2 -10.5 -4.2 0.0 85.0 3.6
1/8/2018 -2.3 -11.2 -6.7 0.0 74.0 5.2
1/7/2018 1.3 -6.4 -1.8 0.0 77.0 2.4
1/6/2018 -5.3 -21.5 -13.2 0.0 75.0 1.6
1/5/2018 -18.0 -28.2 -23.2 0.0 74.0 4.8
1/4/2018 -18.6 -25.8 -21.2 0.0 74.0 4.8
1/3/2018 -19.7 -22.8 -20.7 0.0 72.0 4.4
1/2/2018 -11.4 -21.4 -16.5 0.0 69.0 3.1
1/1/2018 -16.6 -24.9 -21.4 0.0 63.0 5.4
12/31/2017 -22.3 -29.3 -25.8 0.0 66.0 5.3
12/30/2017 -27.0 -32.5 -29.4 0.0 64.0 4.8
12/29/2017 -23.5 -28.3 -25.2 0.0 69.0 5.0
12/28/2017 -18.8 -25.0 -21.1 1.2 73.0 4.5
12/27/2017 -20.0 -28.4 -24.1 0.0 66.0 4.9
12/26/2017 -23.9 -26.5 -25.4 0.0 64.0 5.1
12/25/2017 -24.2 -27.1 -25.6 0.0 63.0 4.8
12/24/2017 -19.1 -24.8 -21.3 0.0 72.0 4.6
12/23/2017 -6.3 -20.5 -13.7 0.0 75.0 3.1
12/22/2017 -7.5 -14.1 -9.9 0.0 73.0 2.9
12/21/2017 -10.4 -23.5 -17.8 0.0 74.0 5.1
12/20/2017 -15.3 -20.2 -16.7 0.7 80.0 1.9
12/19/2017 -1.4 -17.5 -8.9 0.1 69.0 3.8
12/18/2017 2.4 -1.6 0.9 0.0 75.0 2.3
12/17/2017 1.8 -9.0 -4.1 0.0 73.0 5.1
12/16/2017 -2.6 -9.8 -7.7 0.2 90.0 3.9
12/15/2017 -6.6 -10.2 -8.5 2.9 87.0 2.3
12/14/2017 -6.0 -8.4 -7.0 0.0 84.0 2.2
12/13/2017 0.8 -9.1 -5.4 0.0 84.0 1.5
12/12/2017 2.3 -11.2 -3.9 0.0 87.0 3.2
12/11/2017 3.1 -13.6 -7.2 0.6 81.0 4.5
12/10/2017 2.2 -7.8 -4.7 2.2 83.0 2.6
12/9/2017 2.8 -8.1 -4.1 0.0 71.0 2.7
12/8/2017 2.0 -7.8 -4.3 0.0 77.0 4.4
12/7/2017 -1.3 -13.3 -6.3 0.0 74.0 2.3
12/6/2017 -8.1 -14.7 -11.6 0.0 66.0 4.3
12/5/2017 -9.3 -14.9 -11.7 0.0 69.0 5.2
12/4/2017 -2.2 -11.1 -4.8 1.3 82.0 1.4
12/3/2017 1.6 -4.6 -1.5 0.0 83.0 2.3
12/2/2017 6.9 -7.0 -0.1 0.0 77.0 5.2
12/1/2017 2.4 -3.2 -0.2 0.0 80.0 3.2
11/30/2017 3.8 -1.1 1.4 0.0 74.0 4.9
11/29/2017 5.9 -4.6 0.4 0.2 71.0 2.9
11/28/2017 4.0 -6.8 -1.5 0.0 63.0 4.6
11/27/2017 7.4 -5.4 1.7 0.0 80.0 2.5
11/26/2017 3.2 -6.5 -3.3 0.0 81.0 2.4
11/25/2017 2.9 -9.9 -4.9 0.0 81.0 4.5
11/24/2017 8.7 -5.5 3.0 0.0 76.0 5.7
11/23/2017 9.6 -7.7 -1.2 0.0 82.0 3.3
11/22/2017 -5.4 -13.8 -9.1 0.8 82.0 2.5
11/21/2017 -6.7 -11.9 -9.6 0.0 73.0 6.1
11/20/2017 6.3 -8.8 -1.9 0.0 74.0 4.4
11/19/2017 -3.1 -12.0 -7.3 0.0 78.0 6.1
11/18/2017 -8.1 -10.8 -9.6 0.0 68.0 6.6
11/17/2017 2.0 -11.5 -5.7 0.3 74.0 6.0
11/16/2017 -0.9 -7.6 -4.4 0.0 86.0 1.8
11/15/2017 -2.0 -8.4 -6.6 0.0 83.0 3.2
11/14/2017 5.3 -4.7 -1.1 0.0 86.0 5.2
11/13/2017 -1.1 -9.4 -5.3 0.0 88.0 6.9
11/12/2017 -2.6 -8.3 -5.0 0.0 78.0 6.3
11/11/2017 -1.3 -7.0 -4.3 0.0 79.0 4.3
11/10/2017 -6.9 -21.2 -12.1 0.0 74.0 4.0
11/9/2017 -11.6 -23.8 -16.6 0.0 75.0 8.2
11/8/2017 -8.4 -16.3 -10.5 1.4 80.0 4.4
11/7/2017 -5.4 -17.8 -10.4 0.0 75.0 7.3
11/6/2017 -6.6 -13.4 -9.9 0.0 73.0 8.1
11/5/2017 -2.1 -9.9 -6.5 0.0 75.0 7.2
11/4/2017 0.4 -4.2 -2.2 5.3 90.0 3.3
11/3/2017 -3.6 -13.5 -6.9 0.3 88.0 4.9
11/2/2017 -1.8 -6.7 -3.0 0.2 83.0 6.3
11/1/2017 0.0 -6.0 -2.3 5.8 92.0 3.5
10/31/2017 -0.8 -10.1 -4.9 0.0 75.0 4.9